Terminal Aerodrome Forecast
Issued by NWS Salt Lake City, UT

Home | Current Version | Previous Version | Text Only | Print | Product List | Glossary On
Versions: 1 2 3 4 5 6 7 8 9 10 11 12 13 14 15
000
FTUS45 KSLC 292334
TAFCDC
TAF
KCDC 292334Z 3000/3024 VRB05KT P6SM VCSH SCT060 BKN110
     FM300300 VRB04KT P6SM SCT090 BKN120
     FM301600 20008KT P6SM SCT080 BKN120
     FM301800 22011G17KT P6SM VCSH SCT070 BKN110=

USA.gov is the U.S. government's official web portal to all federal, state and local government web resources and services.